sensor_id;sensor_type;location;lat;lon;timestamp;temperature;humidity
14705;DHT22;7442;50.840;3.396;2023-07-31T00:00:35;22.70;68.30
14705;DHT22;7442;50.840;3.396;2023-07-31T00:03:21;22.60;68.20
14705;DHT22;7442;50.840;3.396;2023-07-31T00:06:07;22.70;68.30
14705;DHT22;7442;50.840;3.396;2023-07-31T00:08:53;22.60;68.30
14705;DHT22;7442;50.840;3.396;2023-07-31T00:11:39;22.60;68.20
14705;DHT22;7442;50.840;3.396;2023-07-31T00:14:26;22.60;68.30
14705;DHT22;7442;50.840;3.396;2023-07-31T00:17:14;22.60;68.30
14705;DHT22;7442;50.840;3.396;2023-07-31T00:20:00;22.60;68.30
14705;DHT22;7442;50.840;3.396;2023-07-31T00:22:47;22.60;68.30
14705;DHT22;7442;50.840;3.396;2023-07-31T00:25:33;22.60;68.30
14705;DHT22;7442;50.840;3.396;2023-07-31T00:28:19;22.60;68.30
14705;DHT22;7442;50.840;3.396;2023-07-31T00:31:06;22.60;68.30
14705;DHT22;7442;50.840;3.396;2023-07-31T00:33:52;22.60;68.20
14705;DHT22;7442;50.840;3.396;2023-07-31T00:36:38;22.50;68.30
14705;DHT22;7442;50.840;3.396;2023-07-31T00:39:25;22.60;68.30
14705;DHT22;7442;50.840;3.396;2023-07-31T00:42:11;22.50;68.20
14705;DHT22;7442;50.840;3.396;2023-07-31T00:44:58;22.50;68.20
14705;DHT22;7442;50.840;3.396;2023-07-31T00:47:45;22.60;68.20
14705;DHT22;7442;50.840;3.396;2023-07-31T00:50:31;22.50;68.20
14705;DHT22;7442;50.840;3.396;2023-07-31T00:53:17;22.60;68.30
14705;DHT22;7442;50.840;3.396;2023-07-31T00:56:04;22.60;68.30
14705;DHT22;7442;50.840;3.396;2023-07-31T00:58:50;22.50;68.20
14705;DHT22;7442;50.840;3.396;2023-07-31T01:01:37;22.50;68.20
14705;DHT22;7442;50.840;3.396;2023-07-31T01:04:23;22.50;68.20
14705;DHT22;7442;50.840;3.396;2023-07-31T01:10:26;22.50;68.30
14705;DHT22;7442;50.840;3.396;2023-07-31T01:13:12;22.50;68.30
14705;DHT22;7442;50.840;3.396;2023-07-31T01:15:58;22.50;68.30
14705;DHT22;7442;50.840;3.396;2023-07-31T01:18:45;22.50;68.30
14705;DHT22;7442;50.840;3.396;2023-07-31T01:21:59;22.50;68.30
14705;DHT22;7442;50.840;3.396;2023-07-31T01:28:08;22.50;68.30
14705;DHT22;7442;50.840;3.396;2023-07-31T01:30:55;22.50;68.30
14705;DHT22;7442;50.840;3.396;2023-07-31T01:33:43;22.50;68.30
14705;DHT22;7442;50.840;3.396;2023-07-31T01:36:31;22.50;68.30
14705;DHT22;7442;50.840;3.396;2023-07-31T01:39:17;22.50;68.30
14705;DHT22;7442;50.840;3.396;2023-07-31T01:42:06;22.50;68.30
14705;DHT22;7442;50.840;3.396;2023-07-31T01:44:54;22.50;68.40
14705;DHT22;7442;50.840;3.396;2023-07-31T01:47:40;22.50;68.40
14705;DHT22;7442;50.840;3.396;2023-07-31T01:50:26;22.50;68.50
14705;DHT22;7442;50.840;3.396;2023-07-31T01:53:12;22.40;68.40
14705;DHT22;7442;50.840;3.396;2023-07-31T01:55:59;22.40;68.40
14705;DHT22;7442;50.840;3.396;2023-07-31T01:58:46;22.40;68.40
14705;DHT22;7442;50.840;3.396;2023-07-31T02:01:32;22.40;68.50
14705;DHT22;7442;50.840;3.396;2023-07-31T02:04:18;22.40;68.60
14705;DHT22;7442;50.840;3.396;2023-07-31T02:07:05;22.40;68.70
14705;DHT22;7442;50.840;3.396;2023-07-31T02:09:51;22.40;68.70
14705;DHT22;7442;50.840;3.396;2023-07-31T02:12:39;22.40;68.70
14705;DHT22;7442;50.840;3.396;2023-07-31T02:15:25;22.40;68.70
14705;DHT22;7442;50.840;3.396;2023-07-31T02:18:11;22.40;68.70
14705;DHT22;7442;50.840;3.396;2023-07-31T02:20:57;22.40;68.70
14705;DHT22;7442;50.840;3.396;2023-07-31T02:23:43;22.40;68.70
14705;DHT22;7442;50.840;3.396;2023-07-31T02:26:30;22.40;68.70
14705;DHT22;7442;50.840;3.396;2023-07-31T02:29:16;22.40;68.90
14705;DHT22;7442;50.840;3.396;2023-07-31T02:32:03;22.40;69.00
14705;DHT22;7442;50.840;3.396;2023-07-31T02:34:50;22.40;69.00
14705;DHT22;7442;50.840;3.396;2023-07-31T02:37:36;22.40;69.00
14705;DHT22;7442;50.840;3.396;2023-07-31T02:40:24;22.30;69.00
14705;DHT22;7442;50.840;3.396;2023-07-31T02:43:10;22.40;69.10
14705;DHT22;7442;50.840;3.396;2023-07-31T02:45:56;22.30;69.10
14705;DHT22;7442;50.840;3.396;2023-07-31T02:48:42;22.40;69.20
14705;DHT22;7442;50.840;3.396;2023-07-31T02:51:29;22.40;69.20
14705;DHT22;7442;50.840;3.396;2023-07-31T02:54:15;22.40;69.30
14705;DHT22;7442;50.840;3.396;2023-07-31T02:57:01;22.30;69.20
14705;DHT22;7442;50.840;3.396;2023-07-31T02:59:48;22.30;69.40
14705;DHT22;7442;50.840;3.396;2023-07-31T03:02:34;22.40;69.40
14705;DHT22;7442;50.840;3.396;2023-07-31T03:05:20;22.30;69.40
14705;DHT22;7442;50.840;3.396;2023-07-31T03:08:07;22.30;69.40
14705;DHT22;7442;50.840;3.396;2023-07-31T03:10:54;22.30;69.50
14705;DHT22;7442;50.840;3.396;2023-07-31T03:13:40;22.30;69.50
14705;DHT22;7442;50.840;3.396;2023-07-31T03:16:26;22.30;69.60
14705;DHT22;7442;50.840;3.396;2023-07-31T03:19:12;22.30;69.60
14705;DHT22;7442;50.840;3.396;2023-07-31T03:21:59;22.30;69.60
14705;DHT22;7442;50.840;3.396;2023-07-31T03:24:45;22.30;69.70
14705;DHT22;7442;50.840;3.396;2023-07-31T03:27:32;22.30;69.80
14705;DHT22;7442;50.840;3.396;2023-07-31T03:30:18;22.30;69.80
14705;DHT22;7442;50.840;3.396;2023-07-31T03:33:04;22.30;69.80
14705;DHT22;7442;50.840;3.396;2023-07-31T03:35:51;22.30;69.90
14705;DHT22;7442;50.840;3.396;2023-07-31T03:38:37;22.30;70.00
14705;DHT22;7442;50.840;3.396;2023-07-31T03:41:23;22.30;70.00
14705;DHT22;7442;50.840;3.396;2023-07-31T03:44:10;22.20;69.90
14705;DHT22;7442;50.840;3.396;2023-07-31T03:46:56;22.20;70.00
14705;DHT22;7442;50.840;3.396;2023-07-31T03:49:42;22.30;70.00
14705;DHT22;7442;50.840;3.396;2023-07-31T03:52:28;22.30;70.10
14705;DHT22;7442;50.840;3.396;2023-07-31T03:55:15;22.20;70.00
14705;DHT22;7442;50.840;3.396;2023-07-31T03:58:01;22.20;70.00
14705;DHT22;7442;50.840;3.396;2023-07-31T04:00:47;22.30;70.10
14705;DHT22;7442;50.840;3.396;2023-07-31T04:03:33;22.30;70.20
14705;DHT22;7442;50.840;3.396;2023-07-31T04:06:20;22.20;70.10
14705;DHT22;7442;50.840;3.396;2023-07-31T04:09:06;22.20;70.20
14705;DHT22;7442;50.840;3.396;2023-07-31T04:11:52;22.20;70.20
14705;DHT22;7442;50.840;3.396;2023-07-31T04:14:39;22.20;70.30
14705;DHT22;7442;50.840;3.396;2023-07-31T04:17:25;22.20;70.30
14705;DHT22;7442;50.840;3.396;2023-07-31T04:20:11;22.20;70.30
14705;DHT22;7442;50.840;3.396;2023-07-31T04:22:58;22.20;70.30
14705;DHT22;7442;50.840;3.396;2023-07-31T04:25:44;22.20;70.30
14705;DHT22;7442;50.840;3.396;2023-07-31T04:28:30;22.20;70.30
14705;DHT22;7442;50.840;3.396;2023-07-31T04:31:17;22.20;70.30
14705;DHT22;7442;50.840;3.396;2023-07-31T04:34:03;22.20;70.40
14705;DHT22;7442;50.840;3.396;2023-07-31T04:36:50;22.20;70.40
14705;DHT22;7442;50.840;3.396;2023-07-31T04:39:36;22.20;70.60
14705;DHT22;7442;50.840;3.396;2023-07-31T04:42:22;22.20;70.60
14705;DHT22;7442;50.840;3.396;2023-07-31T04:45:09;22.20;70.60
14705;DHT22;7442;50.840;3.396;2023-07-31T04:47:55;22.20;70.60
14705;DHT22;7442;50.840;3.396;2023-07-31T04:50:42;22.20;70.60
14705;DHT22;7442;50.840;3.396;2023-07-31T04:53:28;22.20;70.70
14705;DHT22;7442;50.840;3.396;2023-07-31T04:56:15;22.20;70.70
14705;DHT22;7442;50.840;3.396;2023-07-31T04:59:01;22.20;70.80
14705;DHT22;7442;50.840;3.396;2023-07-31T05:01:47;22.20;70.80
14705;DHT22;7442;50.840;3.396;2023-07-31T05:04:33;22.10;70.80
14705;DHT22;7442;50.840;3.396;2023-07-31T05:07:20;22.20;70.90
14705;DHT22;7442;50.840;3.396;2023-07-31T05:10:06;22.10;70.90
14705;DHT22;7442;50.840;3.396;2023-07-31T05:12:52;22.10;70.80
14705;DHT22;7442;50.840;3.396;2023-07-31T05:15:39;22.10;70.90
14705;DHT22;7442;50.840;3.396;2023-07-31T05:18:25;22.20;71.00
14705;DHT22;7442;50.840;3.396;2023-07-31T05:21:11;22.20;70.90
14705;DHT22;7442;50.840;3.396;2023-07-31T05:23:58;22.20;70.90
14705;DHT22;7442;50.840;3.396;2023-07-31T05:26:45;22.20;71.10
14705;DHT22;7442;50.840;3.396;2023-07-31T05:29:32;22.20;70.90
14705;DHT22;7442;50.840;3.396;2023-07-31T05:32:18;22.20;70.80
14705;DHT22;7442;50.840;3.396;2023-07-31T05:35:05;22.20;70.90
14705;DHT22;7442;50.840;3.396;2023-07-31T05:37:51;22.20;70.90
14705;DHT22;7442;50.840;3.396;2023-07-31T05:40:38;22.20;70.90
14705;DHT22;7442;50.840;3.396;2023-07-31T05:43:24;22.20;70.90
14705;DHT22;7442;50.840;3.396;2023-07-31T05:46:11;22.20;71.10
14705;DHT22;7442;50.840;3.396;2023-07-31T05:48:57;22.20;71.10
14705;DHT22;7442;50.840;3.396;2023-07-31T05:51:45;22.20;71.40
14705;DHT22;7442;50.840;3.396;2023-07-31T05:54:32;22.20;71.60
14705;DHT22;7442;50.840;3.396;2023-07-31T05:57:19;22.20;71.50
14705;DHT22;7442;50.840;3.396;2023-07-31T06:00:06;22.20;71.70
14705;DHT22;7442;50.840;3.396;2023-07-31T06:02:52;22.20;71.70
14705;DHT22;7442;50.840;3.396;2023-07-31T06:05:41;22.20;71.70
14705;DHT22;7442;50.840;3.396;2023-07-31T06:08:27;22.20;71.70
14705;DHT22;7442;50.840;3.396;2023-07-31T06:11:13;22.20;71.70
14705;DHT22;7442;50.840;3.396;2023-07-31T06:13:59;22.30;71.70
14705;DHT22;7442;50.840;3.396;2023-07-31T06:16:46;22.20;71.70
14705;DHT22;7442;50.840;3.396;2023-07-31T06:19:32;22.30;71.80
14705;DHT22;7442;50.840;3.396;2023-07-31T06:22:19;22.30;71.80
14705;DHT22;7442;50.840;3.396;2023-07-31T06:25:06;22.30;71.70
14705;DHT22;7442;50.840;3.396;2023-07-31T06:27:52;22.30;71.70
14705;DHT22;7442;50.840;3.396;2023-07-31T06:30:39;22.40;71.60
14705;DHT22;7442;50.840;3.396;2023-07-31T06:33:26;22.40;71.60
14705;DHT22;7442;50.840;3.396;2023-07-31T06:36:12;22.40;71.60
14705;DHT22;7442;50.840;3.396;2023-07-31T06:38:58;22.50;71.40
14705;DHT22;7442;50.840;3.396;2023-07-31T06:41:45;22.50;71.50
14705;DHT22;7442;50.840;3.396;2023-07-31T06:44:32;22.40;71.40
14705;DHT22;7442;50.840;3.396;2023-07-31T06:47:18;22.40;71.40
14705;DHT22;7442;50.840;3.396;2023-07-31T06:50:05;22.40;71.40
14705;DHT22;7442;50.840;3.396;2023-07-31T06:52:51;22.40;71.20
14705;DHT22;7442;50.840;3.396;2023-07-31T06:55:38;22.50;71.30
14705;DHT22;7442;50.840;3.396;2023-07-31T06:58:24;22.50;71.30
14705;DHT22;7442;50.840;3.396;2023-07-31T07:01:10;22.50;71.50
14705;DHT22;7442;50.840;3.396;2023-07-31T07:03:57;22.50;71.30
14705;DHT22;7442;50.840;3.396;2023-07-31T07:06:43;22.50;71.20
14705;DHT22;7442;50.840;3.396;2023-07-31T07:09:29;22.40;71.00
14705;DHT22;7442;50.840;3.396;2023-07-31T07:12:15;22.40;71.10
14705;DHT22;7442;50.840;3.396;2023-07-31T07:15:02;22.40;70.60
14705;DHT22;7442;50.840;3.396;2023-07-31T07:17:49;22.40;70.70
14705;DHT22;7442;50.840;3.396;2023-07-31T07:20:35;22.30;70.30
14705;DHT22;7442;50.840;3.396;2023-07-31T07:23:21;22.30;70.10
14705;DHT22;7442;50.840;3.396;2023-07-31T07:26:07;22.30;70.10
14705;DHT22;7442;50.840;3.396;2023-07-31T07:28:54;22.30;70.10
14705;DHT22;7442;50.840;3.396;2023-07-31T07:31:42;22.30;70.10
14705;DHT22;7442;50.840;3.396;2023-07-31T07:34:28;22.30;70.10
14705;DHT22;7442;50.840;3.396;2023-07-31T07:37:16;22.40;70.00
14705;DHT22;7442;50.840;3.396;2023-07-31T07:40:03;22.40;70.00
14705;DHT22;7442;50.840;3.396;2023-07-31T07:42:50;22.40;69.80
14705;DHT22;7442;50.840;3.396;2023-07-31T07:45:36;22.40;69.70
14705;DHT22;7442;50.840;3.396;2023-07-31T07:48:22;22.40;69.70
14705;DHT22;7442;50.840;3.396;2023-07-31T07:51:10;22.30;69.70
14705;DHT22;7442;50.840;3.396;2023-07-31T07:53:56;22.30;69.70
14705;DHT22;7442;50.840;3.396;2023-07-31T07:56:43;22.40;69.70
14705;DHT22;7442;50.840;3.396;2023-07-31T07:59:29;22.40;69.60
14705;DHT22;7442;50.840;3.396;2023-07-31T08:02:16;22.40;69.50
14705;DHT22;7442;50.840;3.396;2023-07-31T08:05:02;22.40;69.70
14705;DHT22;7442;50.840;3.396;2023-07-31T08:07:48;22.40;69.70
14705;DHT22;7442;50.840;3.396;2023-07-31T08:10:35;22.40;69.70
14705;DHT22;7442;50.840;3.396;2023-07-31T08:13:21;22.50;69.80
14705;DHT22;7442;50.840;3.396;2023-07-31T08:16:07;22.50;69.70
14705;DHT22;7442;50.840;3.396;2023-07-31T08:18:55;22.50;69.70
14705;DHT22;7442;50.840;3.396;2023-07-31T08:21:41;22.50;69.80
14705;DHT22;7442;50.840;3.396;2023-07-31T08:24:28;22.50;69.80
14705;DHT22;7442;50.840;3.396;2023-07-31T08:27:14;22.50;69.90
14705;DHT22;7442;50.840;3.396;2023-07-31T08:30:00;22.50;70.10
14705;DHT22;7442;50.840;3.396;2023-07-31T08:32:47;22.50;70.30
14705;DHT22;7442;50.840;3.396;2023-07-31T08:35:34;22.50;70.20
14705;DHT22;7442;50.840;3.396;2023-07-31T08:38:20;22.50;70.30
14705;DHT22;7442;50.840;3.396;2023-07-31T08:41:12;22.50;70.40
14705;DHT22;7442;50.840;3.396;2023-07-31T08:44:00;22.50;70.30
14705;DHT22;7442;50.840;3.396;2023-07-31T08:46:48;22.50;70.40
14705;DHT22;7442;50.840;3.396;2023-07-31T08:49:35;22.50;70.70
14705;DHT22;7442;50.840;3.396;2023-07-31T08:52:23;22.50;70.80
14705;DHT22;7442;50.840;3.396;2023-07-31T08:55:09;22.50;70.80
14705;DHT22;7442;50.840;3.396;2023-07-31T08:57:56;22.50;70.80
14705;DHT22;7442;50.840;3.396;2023-07-31T09:00:43;22.50;71.00
14705;DHT22;7442;50.840;3.396;2023-07-31T09:03:33;22.50;71.10
14705;DHT22;7442;50.840;3.396;2023-07-31T09:06:21;22.50;71.30
14705;DHT22;7442;50.840;3.396;2023-07-31T09:09:09;22.50;72.50
14705;DHT22;7442;50.840;3.396;2023-07-31T09:11:57;22.40;72.30
14705;DHT22;7442;50.840;3.396;2023-07-31T09:14:45;22.50;72.00
14705;DHT22;7442;50.840;3.396;2023-07-31T09:17:36;22.50;71.90
14705;DHT22;7442;50.840;3.396;2023-07-31T09:20:22;22.50;71.90
14705;DHT22;7442;50.840;3.396;2023-07-31T09:23:10;22.50;71.70
14705;DHT22;7442;50.840;3.396;2023-07-31T09:25:57;22.50;71.80
14705;DHT22;7442;50.840;3.396;2023-07-31T09:28:44;22.50;71.90
14705;DHT22;7442;50.840;3.396;2023-07-31T09:31:41;22.50;71.90
14705;DHT22;7442;50.840;3.396;2023-07-31T09:34:38;22.50;71.90
14705;DHT22;7442;50.840;3.396;2023-07-31T09:37:24;22.50;71.90
14705;DHT22;7442;50.840;3.396;2023-07-31T09:40:12;22.50;71.90
14705;DHT22;7442;50.840;3.396;2023-07-31T09:43:07;22.60;71.90
14705;DHT22;7442;50.840;3.396;2023-07-31T09:45:54;22.60;71.80
14705;DHT22;7442;50.840;3.396;2023-07-31T09:48:39;22.60;71.70
14705;DHT22;7442;50.840;3.396;2023-07-31T09:51:29;22.60;72.00
14705;DHT22;7442;50.840;3.396;2023-07-31T09:54:16;22.60;72.00
14705;DHT22;7442;50.840;3.396;2023-07-31T09:57:03;22.60;72.00
14705;DHT22;7442;50.840;3.396;2023-07-31T09:59:49;22.60;72.10
14705;DHT22;7442;50.840;3.396;2023-07-31T10:02:39;22.60;72.30
14705;DHT22;7442;50.840;3.396;2023-07-31T10:05:31;22.60;72.40
14705;DHT22;7442;50.840;3.396;2023-07-31T10:08:16;22.60;72.40
14705;DHT22;7442;50.840;3.396;2023-07-31T10:11:04;22.60;72.50
14705;DHT22;7442;50.840;3.396;2023-07-31T10:13:52;22.60;72.30
14705;DHT22;7442;50.840;3.396;2023-07-31T10:16:39;22.60;72.20
14705;DHT22;7442;50.840;3.396;2023-07-31T10:19:27;22.60;72.70
14705;DHT22;7442;50.840;3.396;2023-07-31T10:22:16;22.70;72.00
14705;DHT22;7442;50.840;3.396;2023-07-31T10:25:05;22.70;72.10
14705;DHT22;7442;50.840;3.396;2023-07-31T10:27:53;22.70;71.80
14705;DHT22;7442;50.840;3.396;2023-07-31T10:30:41;22.70;71.90
14705;DHT22;7442;50.840;3.396;2023-07-31T10:33:28;22.70;71.90
14705;DHT22;7442;50.840;3.396;2023-07-31T10:36:18;22.70;72.00
14705;DHT22;7442;50.840;3.396;2023-07-31T10:39:34;22.70;72.00
14705;DHT22;7442;50.840;3.396;2023-07-31T10:41:54;22.70;72.00
14705;DHT22;7442;50.840;3.396;2023-07-31T10:44:46;22.60;71.90
14705;DHT22;7442;50.840;3.396;2023-07-31T10:47:45;22.60;72.00
14705;DHT22;7442;50.840;3.396;2023-07-31T10:50:37;22.60;71.90
14705;DHT22;7442;50.840;3.396;2023-07-31T10:53:32;22.60;72.00
14705;DHT22;7442;50.840;3.396;2023-07-31T10:56:19;22.60;71.90
14705;DHT22;7442;50.840;3.396;2023-07-31T10:59:07;22.60;71.80
14705;DHT22;7442;50.840;3.396;2023-07-31T11:01:55;22.70;71.90
14705;DHT22;7442;50.840;3.396;2023-07-31T11:05:05;22.70;71.90
14705;DHT22;7442;50.840;3.396;2023-07-31T11:07:46;22.70;71.80
14705;DHT22;7442;50.840;3.396;2023-07-31T11:10:32;22.70;71.70
14705;DHT22;7442;50.840;3.396;2023-07-31T11:13:19;22.70;71.60
14705;DHT22;7442;50.840;3.396;2023-07-31T11:16:06;22.70;71.60
14705;DHT22;7442;50.840;3.396;2023-07-31T11:18:53;22.70;71.60
14705;DHT22;7442;50.840;3.396;2023-07-31T11:21:41;22.70;71.90
14705;DHT22;7442;50.840;3.396;2023-07-31T11:24:28;22.70;71.60
14705;DHT22;7442;50.840;3.396;2023-07-31T11:27:14;22.70;71.50
14705;DHT22;7442;50.840;3.396;2023-07-31T11:30:02;22.70;71.60
14705;DHT22;7442;50.840;3.396;2023-07-31T11:32:49;22.70;71.50
14705;DHT22;7442;50.840;3.396;2023-07-31T11:35:42;22.70;71.50
14705;DHT22;7442;50.840;3.396;2023-07-31T11:38:31;22.80;71.50
14705;DHT22;7442;50.840;3.396;2023-07-31T11:41:19;22.70;71.40
14705;DHT22;7442;50.840;3.396;2023-07-31T11:44:06;22.70;71.40
14705;DHT22;7442;50.840;3.396;2023-07-31T11:46:52;22.80;71.40
14705;DHT22;7442;50.840;3.396;2023-07-31T11:49:39;22.70;71.20
14705;DHT22;7442;50.840;3.396;2023-07-31T11:52:27;22.70;71.30
14705;DHT22;7442;50.840;3.396;2023-07-31T11:55:13;22.70;71.40
14705;DHT22;7442;50.840;3.396;2023-07-31T11:58:01;22.70;71.30
14705;DHT22;7442;50.840;3.396;2023-07-31T12:00:49;22.70;71.30
14705;DHT22;7442;50.840;3.396;2023-07-31T12:03:35;22.70;71.40
14705;DHT22;7442;50.840;3.396;2023-07-31T12:06:22;22.70;71.50
14705;DHT22;7442;50.840;3.396;2023-07-31T12:09:10;22.80;71.50
14705;DHT22;7442;50.840;3.396;2023-07-31T12:11:56;22.80;71.50
14705;DHT22;7442;50.840;3.396;2023-07-31T12:14:42;22.90;71.70
14705;DHT22;7442;50.840;3.396;2023-07-31T12:17:29;22.80;71.80
14705;DHT22;7442;50.840;3.396;2023-07-31T12:20:16;22.80;71.90
14705;DHT22;7442;50.840;3.396;2023-07-31T12:23:02;22.90;71.80
14705;DHT22;7442;50.840;3.396;2023-07-31T12:25:54;22.80;72.00
14705;DHT22;7442;50.840;3.396;2023-07-31T12:28:45;22.80;72.10
14705;DHT22;7442;50.840;3.396;2023-07-31T12:31:33;22.80;71.90
14705;DHT22;7442;50.840;3.396;2023-07-31T12:34:21;22.80;72.00
14705;DHT22;7442;50.840;3.396;2023-07-31T12:37:08;22.80;72.00
14705;DHT22;7442;50.840;3.396;2023-07-31T12:39:55;22.80;71.90
14705;DHT22;7442;50.840;3.396;2023-07-31T12:42:42;22.80;72.10
14705;DHT22;7442;50.840;3.396;2023-07-31T12:45:29;22.80;72.10
14705;DHT22;7442;50.840;3.396;2023-07-31T12:48:16;22.80;72.10
14705;DHT22;7442;50.840;3.396;2023-07-31T12:51:03;22.80;72.10
14705;DHT22;7442;50.840;3.396;2023-07-31T12:53:49;22.80;72.10
14705;DHT22;7442;50.840;3.396;2023-07-31T12:56:36;22.80;72.10
14705;DHT22;7442;50.840;3.396;2023-07-31T12:59:22;22.80;72.10
14705;DHT22;7442;50.840;3.396;2023-07-31T13:02:08;22.80;71.80
14705;DHT22;7442;50.840;3.396;2023-07-31T13:04:54;22.80;72.20
14705;DHT22;7442;50.840;3.396;2023-07-31T13:07:41;22.80;72.10
14705;DHT22;7442;50.840;3.396;2023-07-31T13:10:28;22.80;72.10
14705;DHT22;7442;50.840;3.396;2023-07-31T13:13:14;22.80;72.30
14705;DHT22;7442;50.840;3.396;2023-07-31T13:16:01;22.80;72.50
14705;DHT22;7442;50.840;3.396;2023-07-31T13:18:48;22.70;72.20
14705;DHT22;7442;50.840;3.396;2023-07-31T13:21:34;22.80;72.40
14705;DHT22;7442;50.840;3.396;2023-07-31T13:24:21;22.80;72.30
14705;DHT22;7442;50.840;3.396;2023-07-31T13:27:09;22.80;72.50
14705;DHT22;7442;50.840;3.396;2023-07-31T13:29:55;22.80;72.60
14705;DHT22;7442;50.840;3.396;2023-07-31T13:32:41;22.70;72.50
14705;DHT22;7442;50.840;3.396;2023-07-31T13:35:29;22.70;72.30
14705;DHT22;7442;50.840;3.396;2023-07-31T13:38:16;22.80;72.40
14705;DHT22;7442;50.840;3.396;2023-07-31T13:41:02;22.80;72.20
14705;DHT22;7442;50.840;3.396;2023-07-31T13:43:52;22.80;72.50
14705;DHT22;7442;50.840;3.396;2023-07-31T13:46:38;22.80;72.50
14705;DHT22;7442;50.840;3.396;2023-07-31T13:49:24;22.90;72.60
14705;DHT22;7442;50.840;3.396;2023-07-31T13:52:10;22.80;72.70
14705;DHT22;7442;50.840;3.396;2023-07-31T13:54:57;22.80;72.70
14705;DHT22;7442;50.840;3.396;2023-07-31T13:57:43;22.80;72.60
14705;DHT22;7442;50.840;3.396;2023-07-31T14:00:30;22.80;72.50
14705;DHT22;7442;50.840;3.396;2023-07-31T14:03:17;22.80;72.90
14705;DHT22;7442;50.840;3.396;2023-07-31T14:06:03;22.80;72.80
14705;DHT22;7442;50.840;3.396;2023-07-31T14:08:49;22.80;72.70
14705;DHT22;7442;50.840;3.396;2023-07-31T14:11:36;22.80;72.80
14705;DHT22;7442;50.840;3.396;2023-07-31T14:14:22;22.80;73.00
14705;DHT22;7442;50.840;3.396;2023-07-31T14:17:09;22.80;72.80
14705;DHT22;7442;50.840;3.396;2023-07-31T14:19:55;22.80;73.00
14705;DHT22;7442;50.840;3.396;2023-07-31T14:22:44;22.80;73.30
14705;DHT22;7442;50.840;3.396;2023-07-31T14:25:30;22.70;73.60
14705;DHT22;7442;50.840;3.396;2023-07-31T14:28:17;22.80;73.50
14705;DHT22;7442;50.840;3.396;2023-07-31T14:31:03;22.70;73.40
14705;DHT22;7442;50.840;3.396;2023-07-31T14:33:49;22.80;73.50
14705;DHT22;7442;50.840;3.396;2023-07-31T14:36:36;22.80;73.50
14705;DHT22;7442;50.840;3.396;2023-07-31T14:39:23;22.70;73.50
14705;DHT22;7442;50.840;3.396;2023-07-31T14:42:10;22.70;73.50
14705;DHT22;7442;50.840;3.396;2023-07-31T14:44:56;22.70;73.40
14705;DHT22;7442;50.840;3.396;2023-07-31T14:47:44;22.70;73.40
14705;DHT22;7442;50.840;3.396;2023-07-31T14:50:31;22.80;73.60
14705;DHT22;7442;50.840;3.396;2023-07-31T14:53:17;22.80;73.30
14705;DHT22;7442;50.840;3.396;2023-07-31T14:56:04;22.80;73.10
14705;DHT22;7442;50.840;3.396;2023-07-31T14:58:50;22.80;73.00
14705;DHT22;7442;50.840;3.396;2023-07-31T15:01:36;22.80;73.10
14705;DHT22;7442;50.840;3.396;2023-07-31T15:04:23;22.80;73.20
14705;DHT22;7442;50.840;3.396;2023-07-31T15:07:09;22.80;73.20
14705;DHT22;7442;50.840;3.396;2023-07-31T15:09:56;22.80;73.30
14705;DHT22;7442;50.840;3.396;2023-07-31T15:12:42;22.70;73.30
14705;DHT22;7442;50.840;3.396;2023-07-31T15:15:29;22.70;73.20
14705;DHT22;7442;50.840;3.396;2023-07-31T15:18:16;22.80;73.30
14705;DHT22;7442;50.840;3.396;2023-07-31T15:21:02;22.80;73.40
14705;DHT22;7442;50.840;3.396;2023-07-31T15:23:51;22.80;73.50
14705;DHT22;7442;50.840;3.396;2023-07-31T15:26:43;22.80;73.40
14705;DHT22;7442;50.840;3.396;2023-07-31T15:29:30;22.80;73.60
14705;DHT22;7442;50.840;3.396;2023-07-31T15:32:18;22.70;73.70
14705;DHT22;7442;50.840;3.396;2023-07-31T15:35:05;22.70;73.90
14705;DHT22;7442;50.840;3.396;2023-07-31T15:37:51;22.70;74.20
14705;DHT22;7442;50.840;3.396;2023-07-31T15:40:39;22.70;74.30
14705;DHT22;7442;50.840;3.396;2023-07-31T15:43:25;22.60;74.30
14705;DHT22;7442;50.840;3.396;2023-07-31T15:46:13;22.70;74.20
14705;DHT22;7442;50.840;3.396;2023-07-31T15:48:59;22.70;74.30
14705;DHT22;7442;50.840;3.396;2023-07-31T15:51:47;22.70;74.30
14705;DHT22;7442;50.840;3.396;2023-07-31T15:54:34;22.70;74.40
14705;DHT22;7442;50.840;3.396;2023-07-31T15:57:20;22.70;74.30
14705;DHT22;7442;50.840;3.396;2023-07-31T16:00:08;22.60;74.40
14705;DHT22;7442;50.840;3.396;2023-07-31T16:02:54;22.70;74.60
14705;DHT22;7442;50.840;3.396;2023-07-31T16:05:41;22.60;74.50
14705;DHT22;7442;50.840;3.396;2023-07-31T16:08:28;22.60;74.50
14705;DHT22;7442;50.840;3.396;2023-07-31T16:11:18;22.60;74.60
14705;DHT22;7442;50.840;3.396;2023-07-31T16:14:04;22.60;74.40
14705;DHT22;7442;50.840;3.396;2023-07-31T16:16:57;22.60;74.80
14705;DHT22;7442;50.840;3.396;2023-07-31T16:19:44;22.60;74.50
14705;DHT22;7442;50.840;3.396;2023-07-31T16:22:30;22.70;74.40
14705;DHT22;7442;50.840;3.396;2023-07-31T16:25:17;22.70;74.40
14705;DHT22;7442;50.840;3.396;2023-07-31T16:28:03;22.60;74.30
14705;DHT22;7442;50.840;3.396;2023-07-31T16:30:56;22.70;74.30
14705;DHT22;7442;50.840;3.396;2023-07-31T16:33:43;22.70;74.50
14705;DHT22;7442;50.840;3.396;2023-07-31T16:36:29;22.70;74.50
14705;DHT22;7442;50.840;3.396;2023-07-31T16:39:15;22.70;74.40
14705;DHT22;7442;50.840;3.396;2023-07-31T16:42:03;22.70;74.40
14705;DHT22;7442;50.840;3.396;2023-07-31T16:44:50;22.70;74.70
14705;DHT22;7442;50.840;3.396;2023-07-31T16:47:36;22.70;74.80
14705;DHT22;7442;50.840;3.396;2023-07-31T16:50:23;22.70;74.90
14705;DHT22;7442;50.840;3.396;2023-07-31T16:53:09;22.70;75.00
14705;DHT22;7442;50.840;3.396;2023-07-31T16:55:56;22.70;75.10
14705;DHT22;7442;50.840;3.396;2023-07-31T16:58:44;22.70;76.00
14705;DHT22;7442;50.840;3.396;2023-07-31T17:01:30;22.80;75.30
14705;DHT22;7442;50.840;3.396;2023-07-31T17:04:18;22.80;75.20
14705;DHT22;7442;50.840;3.396;2023-07-31T17:07:11;22.80;75.20
14705;DHT22;7442;50.840;3.396;2023-07-31T17:09:58;22.70;77.00
14705;DHT22;7442;50.840;3.396;2023-07-31T17:12:45;22.70;76.20
14705;DHT22;7442;50.840;3.396;2023-07-31T17:15:33;22.70;76.00
14705;DHT22;7442;50.840;3.396;2023-07-31T17:18:19;22.70;76.10
14705;DHT22;7442;50.840;3.396;2023-07-31T17:21:07;22.60;75.70
14705;DHT22;7442;50.840;3.396;2023-07-31T17:23:55;22.60;76.00
14705;DHT22;7442;50.840;3.396;2023-07-31T17:26:41;22.60;75.60
14705;DHT22;7442;50.840;3.396;2023-07-31T17:29:29;22.60;76.20
14705;DHT22;7442;50.840;3.396;2023-07-31T17:32:15;22.60;75.40
14705;DHT22;7442;50.840;3.396;2023-07-31T17:35:02;22.60;75.30
14705;DHT22;7442;50.840;3.396;2023-07-31T17:37:48;22.60;75.30
14705;DHT22;7442;50.840;3.396;2023-07-31T17:40:35;22.60;75.30
14705;DHT22;7442;50.840;3.396;2023-07-31T17:43:23;22.60;75.30
14705;DHT22;7442;50.840;3.396;2023-07-31T17:46:10;22.60;75.10
14705;DHT22;7442;50.840;3.396;2023-07-31T17:48:56;22.60;75.00
14705;DHT22;7442;50.840;3.396;2023-07-31T17:51:45;22.60;75.30
14705;DHT22;7442;50.840;3.396;2023-07-31T17:54:32;22.60;75.50
14705;DHT22;7442;50.840;3.396;2023-07-31T17:57:18;22.70;75.70